Date,TemperatureHighF,TemperatureAvgF,TemperatureLowF,DewpointHighF,DewpointAvgF,DewpointLowF,HumidityHigh,HumidityAvg,HumidityLow,PressureMaxIn,PressureMinIn,WindSpeedMaxMPH,WindSpeedAvgMPH,GustSpeedMaxMPH,PrecipitationSumIn
2013-3-1,54.4,45.7,38.1,38.0,33.9,32.0,90,65,45,29.94,29.85,8,2,13,0.00
2013-3-2,49.1,41.3,34.4,38.0,34.8,33.0,97,79,55,29.93,29.83,9,1,12,0.00
2013-3-3,49.2,41.2,35.8,36.0,28.2,24.0,94,62,42,29.99,29.87,13,3,20,0.00
2013-3-4,53.2,40.4,30.8,31.0,24.2,19.0,83,56,27,30.16,29.99,11,3,18,0.00
2013-3-5,65.6,53.1,36.0,56.0,43.0,32.0,95,71,40,30.13,29.66,14,3,19,0.02
2013-3-6,62.5,49.4,42.1,55.0,32.4,25.0,81,54,38,30.05,29.62,20,7,32,0.01
2013-3-7,57.6,46.5,35.7,36.0,32.4,30.0,80,60,39,30.21,30.06,9,4,18,0.00
2013-3-8,57.8,46.5,35.4,34.0,30.1,28.0,76,55,32,30.28,30.16,15,3,20,0.00
2013-3-9,63.9,48.4,35.6,42.0,35.5,30.0,93,64,37,30.32,30.23,11,2,13,0.00
2013-3-10,62.2,49.0,36.1,46.0,35.7,25.0,97,67,25,30.32,30.23,9,1,11,0.00
2013-3-11,71.7,57.0,43.2,59.0,51.3,41.0,97,82,55,30.24,29.94,7,1,14,0.00
2013-3-12,70.8,63.8,57.7,64.0,60.3,50.0,97,88,76,29.95,29.78,7,1,12,0.30
2013-3-13,63.8,55.1,44.1,50.0,36.3,26.0,80,53,24,30.12,29.92,11,3,19,0.00
2013-3-14,54.4,44.9,35.9,33.0,24.9,20.0,81,47,30,30.29,30.11,13,4,17,0.00
2013-3-15,61.0,48.2,31.3,45.0,35.5,25.0,96,66,31,30.23,30.02,9,2,11,0.00
2013-3-16,79.6,66.0,54.6,52.0,47.3,42.0,72,53,27,30.01,29.80,10,4,24,0.00
2013-3-17,79.2,66.4,54.0,60.0,52.4,47.0,80,62,39,30.04,29.91,10,2,17,0.00
2013-3-18,62.2,55.7,50.3,55.0,51.9,48.0,97,87,69,30.12,29.87,7,2,12,0.00
2013-3-19,71.2,58.5,49.6,56.0,50.7,43.0,98,79,39,30.01,29.80,12,3,20,0.47
2013-3-20,60.2,50.2,40.2,45.0,31.4,15.0,92,53,18,30.12,29.83,7,1,12,0.00
2013-3-21,54.7,46.0,37.4,38.0,24.7,14.0,95,49,24,29.96,29.75,12,4,22,0.00
2013-3-22,52.0,42.5,29.8,38.0,25.2,17.0,74,52,28,30.11,29.96,6,2,12,0.00
2013-3-23,50.3,45.1,39.2,47.0,42.3,37.0,95,89,72,30.08,29.91,4,1,10,0.35
2013-3-24,60.2,50.6,44.5,59.0,49.3,43.0,98,95,91,29.91,29.44,13,4,19,1.93
2013-3-25,53.6,47.5,42.9,44.0,35.2,26.0,96,66,40,29.91,29.56,17,5,30,0.00
2013-3-26,50.8,43.2,33.5,32.0,28.3,26.0,79,57,40,30.15,29.92,10,3,20,0.00
2013-3-27,56.8,44.7,33.2,33.0,30.1,25.0,91,61,34,30.25,30.16,11,2,18,0.00
2013-3-28,58.3,45.2,32.0,34.0,28.9,25.0,90,57,28,30.29,30.18,20,3,21,0.00
2013-3-29,59.5,48.1,32.8,41.0,34.1,27.0,92,62,29,30.36,30.23,9,1,14,0.00
2013-3-30,61.9,54.4,47.5,51.0,46.3,41.0,95,75,53,30.26,30.11,7,1,12,0.00
2013-3-31,74.2,63.1,50.1,59.0,55.9,49.0,95,79,56,30.11,29.88,12,3,20,0.44